Terminal Aerodrome Forecast
Issued by NWS Des Moines, IA

Home | Current Version | Previous Version | Text Only | Print | Product List | Glossary On
Versions: 1 2 3 4 5 6 7 8 9 10 11 12 13 14 15 16 17 18 19 20 21 22 23 24 25 26 27 28 29 30 31 32 33 34 35 36 37
000
FTUS43 KDMX 190750 AAA
TAFDSM
TAF AMD
KDSM 190750Z 1908/2006 16003KT P6SM OVC016
      TEMPO 1908/1911 3SM -FZDZ OVC008
     FM191100 16004KT 5SM BR BKN013
     FM191600 17005KT P6SM BKN022=

USA.gov is the U.S. government's official web portal to all federal, state and local government web resources and services.